Startpagina
METAR-TAF:

METAR-TAF

Vliegvelden :

Aéroport de Paris-Orly

Parijs-Orly, Frankrijk

breedte: 48-44N, lengte: 002-24E, hoogte: 89 m

Actueel weer

Dit bericht is 34 minuten geleden gemaakt, om 03:00 UTC
Wind 6 kt uit het westnoordwesten
Temperatuur 1°C
Vochtigheid 86%
Druk 1027 hPa
Zicht 10 km of meer
geen wolken onder 1500 m en geen cumulonimbus

METAR: LFPO 120300Z 29006KT CAVOK 01/M01 Q1027 NOSIG

Tijdstip: 05:34 (03:34 UTC)

Verwachting

Dit bericht is 4 uur en het 34 minuten geleden gemaakt, om 23:00 UTC
Verwachting geldig van 12 om 00 UTC tot 13 om 06 UTC
Wind 5 kt uit het noordnoordwesten
Zicht 10 km of meer
geen wolken onder 1500 m en geen cumulonimbus
Tijdelijke
van 12 om 14 UTC tot 12 om 21 UTC
Verspreide wolken op 4000 ft, Stapelwolken.
lichte regenbuien
Kans 30% :
Tijdelijke
van 12 om 15 UTC tot 12 om 19 UTC
Zicht: 4000 m
Verspreide wolken op 4000 ft, Cumulonimbus.
regenbuien

TAF: LFPO 112300Z 1200/1306 33005KT CAVOK TEMPO 1214/1221 -SHRA SCT040TCU PROB30 TEMPO 1215/1219 4000 SHRA SCT040CB

Waarnemingen en weersverwachtingen van meer dan 4000 vliegvelden (METAR en TAF).

De beschikbare stations zijn de gele en rode punten op de kaart.

Ga met uw muis naar het station om de naam te zien.

Klik dan om waarnemingen en weersverwachtingen te zien.

kaart wijzigen: klik op de groene knoppen met een zwart kruis om in te zoomen, op de groene knop met een streepje om uit te zoomen of op de groene pijlen voor aangrenzende kaarten.


METAR-TAF: